createdAt,value
2022-10-26T00:02:00.415Z,12.37
2022-10-26T00:04:27.110Z,12.00
2022-10-26T00:06:53.687Z,14.41
2022-10-26T00:09:20.335Z,13.47
2022-10-26T00:11:46.914Z,13.82
2022-10-26T00:14:13.458Z,12.76
2022-10-26T00:16:40.033Z,12.05
2022-10-26T00:19:06.678Z,15.23
2022-10-26T00:21:33.229Z,14.02
2022-10-26T00:24:00.264Z,14.06
2022-10-26T00:26:27.893Z,13.68
2022-10-26T00:28:55.199Z,12.36
2022-10-26T00:31:22.127Z,11.62
2022-10-26T00:33:52.512Z,10.70
2022-10-26T00:36:19.138Z,10.62
2022-10-26T00:38:50.110Z,10.28
2022-10-26T00:41:21.388Z,9.80
2022-10-26T00:43:48.488Z,9.17
2022-10-26T00:46:32.775Z,8.77
2022-10-26T00:49:02.384Z,10.53
2022-10-26T00:51:55.438Z,11.55
2022-10-26T00:54:22.067Z,13.87
2022-10-26T00:56:50.972Z,14.09
2022-10-26T00:59:18.133Z,12.07
2022-10-26T01:01:47.383Z,12.33
2022-10-26T01:04:14.862Z,11.62
2022-10-26T01:06:42.377Z,10.52
2022-10-26T01:09:10.203Z,10.00
2022-10-26T01:11:36.806Z,9.41
2022-10-26T01:14:05.656Z,9.44
2022-10-26T01:16:44.452Z,9.36
2022-10-26T01:19:29.407Z,8.84
2022-10-26T01:22:22.403Z,9.32
2022-10-26T01:24:55.092Z,8.55
2022-10-26T01:27:26.993Z,8.49
2022-10-26T01:30:14.979Z,8.97
2022-10-26T01:33:03.349Z,9.46
2022-10-26T01:35:47.873Z,9.07
2022-10-26T01:38:32.939Z,9.71
2022-10-26T01:41:13.157Z,8.70
2022-10-26T01:43:46.947Z,9.49
2022-10-26T01:46:14.520Z,9.38
2022-10-26T01:48:41.369Z,9.64
2022-10-26T01:51:09.714Z,10.61
2022-10-26T01:53:36.463Z,11.06
2022-10-26T01:56:03.222Z,10.41
2022-10-26T01:59:07.858Z,9.81
2022-10-26T02:01:50.895Z,11.44
2022-10-26T02:04:48.587Z,10.82
2022-10-26T02:07:35.468Z,10.14
2022-10-26T02:10:25.426Z,10.05
2022-10-26T02:13:01.097Z,10.46
2022-10-26T02:15:36.346Z,10.84
2022-10-26T02:18:15.040Z,12.95
2022-10-26T02:20:45.082Z,12.74
2022-10-26T02:23:12.636Z,13.26
2022-10-26T02:25:44.242Z,12.62
2022-10-26T02:28:14.448Z,13.74
2022-10-26T02:30:42.140Z,12.50
2022-10-26T02:33:10.892Z,11.62
2022-10-26T02:35:38.564Z,11.56
2022-10-26T02:38:08.663Z,11.74
2022-10-26T02:40:36.060Z,12.16
2022-10-26T02:43:06.476Z,12.43
2022-10-26T02:45:46.258Z,12.72
2022-10-26T02:48:12.883Z,12.80
2022-10-26T02:50:48.440Z,12.62
2022-10-26T02:53:26.230Z,13.13
2022-10-26T02:55:52.854Z,13.93
2022-10-26T02:58:25.779Z,14.06
2022-10-26T03:00:53.033Z,13.14
2022-10-26T03:03:19.763Z,13.51
2022-10-26T03:05:46.463Z,12.93
2022-10-26T03:08:13.035Z,13.42
2022-10-26T03:10:44.424Z,12.64
2022-10-26T03:13:12.189Z,12.99
2022-10-26T03:15:39.027Z,13.62
2022-10-26T03:18:05.914Z,13.20
2022-10-26T03:20:32.605Z,14.14
2022-10-26T03:22:59.241Z,13.60
2022-10-26T03:25:26.242Z,13.28
2022-10-26T03:28:03.400Z,13.07
2022-10-26T03:30:30.788Z,12.06
2022-10-26T03:32:57.662Z,12.83
2022-10-26T03:35:24.470Z,12.23
2022-10-26T03:37:51.301Z,13.38
2022-10-26T03:40:18.185Z,12.87
2022-10-26T03:42:44.807Z,11.87
2022-10-26T03:45:11.450Z,12.13
2022-10-26T03:47:48.592Z,13.10
2022-10-26T03:50:17.898Z,12.65
2022-10-26T03:52:45.073Z,11.73
2022-10-26T03:55:11.675Z,12.20
2022-10-26T03:57:45.647Z,12.85
2022-10-26T04:00:17.564Z,10.99
2022-10-26T04:02:48.623Z,10.25
2022-10-26T04:05:16.682Z,10.64
2022-10-26T04:07:43.858Z,10.90
2022-10-26T04:10:10.778Z,10.05
2022-10-26T04:12:40.357Z,9.96
2022-10-26T04:15:07.776Z,10.66
2022-10-26T04:17:34.558Z,10.83
2022-10-26T04:20:01.221Z,10.43
2022-10-26T04:22:27.815Z,10.99
2022-10-26T04:24:54.361Z,11.13
2022-10-26T04:27:21.071Z,12.08
2022-10-26T04:29:47.639Z,12.07
2022-10-26T04:32:14.192Z,11.38
2022-10-26T04:34:40.761Z,12.24
2022-10-26T04:37:07.332Z,12.33
2022-10-26T04:39:33.982Z,11.63
2022-10-26T04:42:00.613Z,11.65
2022-10-26T04:44:27.140Z,10.58
2022-10-26T04:46:53.730Z,10.65
2022-10-26T04:49:20.391Z,11.03
2022-10-26T04:51:46.945Z,10.47
2022-10-26T04:54:13.762Z,11.19
2022-10-26T04:56:40.443Z,11.14
2022-10-26T04:59:07.110Z,11.15
2022-10-26T05:01:33.937Z,11.28
2022-10-26T05:04:00.582Z,10.76
2022-10-26T05:06:27.161Z,11.32
2022-10-26T05:08:53.777Z,11.39
2022-10-26T05:11:20.329Z,12.44
2022-10-26T05:13:48.046Z,12.38
2022-10-26T05:16:16.247Z,13.86
2022-10-26T05:18:42.802Z,12.38
2022-10-26T05:21:09.427Z,11.98
2022-10-26T05:23:35.960Z,12.27
2022-10-26T05:26:04.966Z,12.14
2022-10-26T05:28:31.535Z,12.53
2022-10-26T05:30:58.812Z,12.40
2022-10-26T05:33:25.517Z,13.22
2022-10-26T05:35:54.672Z,13.04
2022-10-26T05:38:21.238Z,13.18
2022-10-26T05:40:51.480Z,12.57
2022-10-26T05:43:18.624Z,13.45
2022-10-26T05:45:45.465Z,12.38
2022-10-26T05:48:14.087Z,11.97
2022-10-26T05:50:40.757Z,11.92
2022-10-26T05:53:07.350Z,12.43
2022-10-26T05:55:34.621Z,13.41
2022-10-26T05:58:01.554Z,12.96
2022-10-26T06:00:29.349Z,12.09
2022-10-26T06:03:05.091Z,12.21
2022-10-26T06:05:37.432Z,13.38
2022-10-26T06:08:08.592Z,12.23
2022-10-26T06:10:35.346Z,12.48
2022-10-26T06:13:02.232Z,12.85
2022-10-26T06:15:31.191Z,13.26
2022-10-26T06:18:09.368Z,13.26
2022-10-26T06:20:45.160Z,13.18
2022-10-26T06:23:24.911Z,14.18
2022-10-26T06:26:09.574Z,12.99
2022-10-26T06:28:58.102Z,13.04
2022-10-26T06:31:24.647Z,14.01
2022-10-26T06:33:54.051Z,13.41
2022-10-26T06:36:26.974Z,13.50
2022-10-26T06:39:03.824Z,13.15
2022-10-26T06:41:32.689Z,13.59
2022-10-26T06:43:59.576Z,14.71
2022-10-26T06:46:32.799Z,14.50
2022-10-26T06:49:19.356Z,14.42
2022-10-26T06:51:49.699Z,15.31
2022-10-26T06:54:23.578Z,16.64
2022-10-26T06:56:51.840Z,15.53
2022-10-26T06:59:54.625Z,15.29
2022-10-26T07:02:21.599Z,16.35
2022-10-26T07:04:48.420Z,16.31
2022-10-26T07:07:18.508Z,17.32
2022-10-26T07:09:45.127Z,17.06
2022-10-26T07:12:11.810Z,18.58
2022-10-26T07:14:38.559Z,17.89
2022-10-26T07:17:05.866Z,17.36
2022-10-26T07:19:32.602Z,17.79
2022-10-26T07:22:00.188Z,17.04
2022-10-26T07:24:27.892Z,18.56
2022-10-26T07:26:55.773Z,17.05
2022-10-26T07:29:23.698Z,17.25
2022-10-26T07:31:50.598Z,16.81
2022-10-26T07:34:17.311Z,17.05
2022-10-26T07:36:43.956Z,17.22
2022-10-26T07:39:10.788Z,18.01
2022-10-26T07:41:37.430Z,19.21
2022-10-26T07:44:04.044Z,17.40
2022-10-26T07:46:30.644Z,17.63
2022-10-26T07:48:57.244Z,18.11
2022-10-26T07:51:23.834Z,18.81
2022-10-26T07:53:50.405Z,17.50
2022-10-26T07:56:17.040Z,18.28
2022-10-26T07:58:43.634Z,18.86
2022-10-26T08:01:12.544Z,18.68
2022-10-26T08:03:39.651Z,19.18
2022-10-26T08:06:07.570Z,19.55
2022-10-26T08:08:36.789Z,18.21
2022-10-26T08:11:03.620Z,17.83
2022-10-26T08:13:30.402Z,16.68
2022-10-26T08:15:58.378Z,16.78
2022-10-26T08:18:26.189Z,17.14
2022-10-26T08:20:56.369Z,14.98
2022-10-26T08:23:28.561Z,13.76
2022-10-26T08:26:02.520Z,12.70
2022-10-26T08:28:29.675Z,12.10
2022-10-26T08:30:56.966Z,11.46
2022-10-26T08:33:24.329Z,11.42
2022-10-26T08:35:59.593Z,8.86
2022-10-26T08:38:26.304Z,6.47
2022-10-26T08:40:53.318Z,5.32
2022-10-26T08:43:26.888Z,3.82
2022-10-26T08:46:05.696Z,0.00
2022-10-26T08:48:56.309Z,0.00
2022-10-26T08:51:26.804Z,0.00
2022-10-26T08:54:05.654Z,0.00
2022-10-26T08:56:50.084Z,0.00
2022-10-26T08:59:35.673Z,0.00
2022-10-26T09:02:02.820Z,0.00
2022-10-26T09:04:31.567Z,0.00
2022-10-26T09:07:06.216Z,0.00
2022-10-26T09:10:13.662Z,0.00
2022-10-26T09:13:25.090Z,0.00
2022-10-26T09:16:20.418Z,0.00
2022-10-26T09:18:55.821Z,0.00
2022-10-26T09:21:29.580Z,0.00
2022-10-26T09:24:35.358Z,0.00
2022-10-26T09:27:35.734Z,0.00
2022-10-26T09:30:14.660Z,0.00
2022-10-26T09:32:47.417Z,0.00
2022-10-26T09:35:46.161Z,0.00
2022-10-26T09:38:49.998Z,0.00
2022-10-26T09:41:27.143Z,0.00
2022-10-26T09:44:02.912Z,0.00
2022-10-26T09:46:47.039Z,0.00
2022-10-26T09:49:15.433Z,0.00
2022-10-26T09:51:43.750Z,0.00
2022-10-26T09:54:18.824Z,0.00
2022-10-26T09:56:55.915Z,0.00
2022-10-26T09:59:23.516Z,0.00
2022-10-26T10:01:50.438Z,0.00
2022-10-26T10:04:20.362Z,0.00
2022-10-26T10:06:48.964Z,0.00
2022-10-26T10:09:17.742Z,0.00
2022-10-26T10:11:55.381Z,0.00
2022-10-26T10:14:39.903Z,0.00
2022-10-26T10:17:09.734Z,0.00
2022-10-26T10:19:37.745Z,0.00
2022-10-26T10:22:16.163Z,0.00
2022-10-26T10:24:43.897Z,0.00
2022-10-26T10:27:15.510Z,0.00
2022-10-26T10:29:46.563Z,0.00
2022-10-26T10:32:27.851Z,0.00
2022-10-26T10:34:56.081Z,0.00
2022-10-26T10:37:31.319Z,0.00
2022-10-26T10:40:07.692Z,0.00
2022-10-26T10:42:37.348Z,0.00
2022-10-26T10:45:04.594Z,0.00
2022-10-26T10:47:35.969Z,0.00
2022-10-26T10:50:04.386Z,0.00
2022-10-26T10:52:33.083Z,0.00
2022-10-26T10:55:14.952Z,0.00
2022-10-26T10:58:01.759Z,0.00
2022-10-26T11:00:28.390Z,0.00
2022-10-26T11:03:25.045Z,0.00
2022-10-26T11:06:01.578Z,0.00
2022-10-26T11:08:43.612Z,0.00
2022-10-26T11:11:27.303Z,0.00
2022-10-26T11:13:58.667Z,0.00
2022-10-26T11:16:34.916Z,0.00
2022-10-26T11:19:12.709Z,0.00
2022-10-26T11:21:39.251Z,0.00
2022-10-26T11:24:16.359Z,0.00
2022-10-26T11:26:49.039Z,0.00
2022-10-26T11:29:24.685Z,0.00
2022-10-26T11:31:54.632Z,0.00
2022-10-26T11:34:40.978Z,0.00
2022-10-26T11:37:19.709Z,0.00
2022-10-26T11:39:58.112Z,0.00
2022-10-26T11:42:30.292Z,0.00
2022-10-26T11:45:03.186Z,0.00
2022-10-26T11:47:39.668Z,0.00
2022-10-26T11:50:20.303Z,0.00
2022-10-26T11:52:49.783Z,0.00
2022-10-26T11:55:17.243Z,0.00
2022-10-26T11:57:46.551Z,0.00
2022-10-26T12:00:13.047Z,0.00
2022-10-26T12:05:15.257Z,0.00
2022-10-26T12:07:45.898Z,0.00
2022-10-26T12:10:23.879Z,0.00
2022-10-26T12:12:53.569Z,0.00
2022-10-26T12:15:40.309Z,0.00
2022-10-26T12:18:54.052Z,0.00
2022-10-26T12:21:20.298Z,0.00
2022-10-26T12:23:58.914Z,0.00
2022-10-26T12:26:28.525Z,0.00
2022-10-26T12:29:04.413Z,0.00
2022-10-26T12:31:37.329Z,0.00
2022-10-26T12:34:05.856Z,0.00
2022-10-26T12:36:57.259Z,0.00
2022-10-26T12:39:30.878Z,0.00
2022-10-26T12:42:06.473Z,0.00
2022-10-26T12:44:48.329Z,0.00
2022-10-26T12:47:30.277Z,0.00
2022-10-26T12:50:05.810Z,0.00
2022-10-26T12:52:43.907Z,0.00
2022-10-26T12:55:18.161Z,0.00
2022-10-26T12:57:54.376Z,0.00
2022-10-26T13:00:26.176Z,0.00
2022-10-26T13:03:11.106Z,0.00
2022-10-26T13:06:17.213Z,0.00
2022-10-26T13:09:00.113Z,0.00
2022-10-26T13:11:42.746Z,0.00
2022-10-26T13:14:21.882Z,0.00
2022-10-26T13:16:48.787Z,0.00
2022-10-26T13:19:39.738Z,0.00
2022-10-26T13:22:06.395Z,0.00
2022-10-26T13:24:34.781Z,0.00
2022-10-26T13:27:08.061Z,0.00
2022-10-26T13:30:03.492Z,0.00
2022-10-26T13:32:31.339Z,0.00
2022-10-26T13:35:00.132Z,0.00
2022-10-26T13:37:28.275Z,0.00
2022-10-26T13:39:56.010Z,0.00
2022-10-26T13:42:44.502Z,0.00
2022-10-26T13:45:15.228Z,0.00
2022-10-26T13:48:01.692Z,0.00
2022-10-26T13:50:33.493Z,0.00
2022-10-26T13:53:06.280Z,0.00
2022-10-26T13:55:38.035Z,0.00
2022-10-26T13:58:29.400Z,0.00
2022-10-26T14:01:14.158Z,0.00
2022-10-26T14:03:41.619Z,0.00
2022-10-26T14:06:37.317Z,0.00
2022-10-26T14:09:12.528Z,0.00
2022-10-26T14:11:55.612Z,0.00
2022-10-26T14:14:32.536Z,0.00
2022-10-26T14:16:59.533Z,0.00
2022-10-26T14:19:30.572Z,0.00
2022-10-26T14:22:01.170Z,0.00
2022-10-26T14:24:46.787Z,0.00
2022-10-26T14:27:18.644Z,0.00
2022-10-26T14:29:49.865Z,0.00
2022-10-26T14:32:33.505Z,0.00
2022-10-26T14:35:00.144Z,0.00
2022-10-26T14:37:41.358Z,0.00
2022-10-26T14:40:17.807Z,0.00
2022-10-26T14:42:49.998Z,0.00
2022-10-26T14:45:47.730Z,0.00
2022-10-26T14:48:24.106Z,0.00
2022-10-26T14:51:04.182Z,0.00
2022-10-26T14:53:34.900Z,0.00
2022-10-26T14:56:01.900Z,7.68
2022-10-26T14:58:30.630Z,15.04
2022-10-26T15:01:22.269Z,20.64
2022-10-26T15:03:58.180Z,28.59
2022-10-26T15:06:27.721Z,32.65
2022-10-26T15:08:59.427Z,34.11
2022-10-26T15:11:27.286Z,36.47
2022-10-26T15:13:54.743Z,38.58
2022-10-26T15:16:24.322Z,40.17
2022-10-26T15:18:56.243Z,41.84
2022-10-26T15:21:37.348Z,41.78
2022-10-26T15:24:31.017Z,42.87
2022-10-26T15:27:00.834Z,43.75
2022-10-26T15:29:47.358Z,42.57
2022-10-26T15:32:33.204Z,42.96
2022-10-26T15:35:18.175Z,44.75
2022-10-26T15:37:46.010Z,44.95
2022-10-26T15:40:13.222Z,46.29
2022-10-26T15:42:41.539Z,47.09
2022-10-26T15:45:26.156Z,47.88
2022-10-26T15:47:53.877Z,49.39
2022-10-26T15:50:22.703Z,50.36
2022-10-26T15:52:49.768Z,52.47
2022-10-26T15:55:17.531Z,53.56
2022-10-26T15:57:44.169Z,53.92
2022-10-26T16:00:15.665Z,54.32
2022-10-26T16:02:44.157Z,55.38
2022-10-26T16:05:16.082Z,55.56
2022-10-26T16:07:44.179Z,54.56
2022-10-26T16:10:19.661Z,53.69
2022-10-26T16:12:46.481Z,54.22
2022-10-26T16:15:21.526Z,53.38
2022-10-26T16:17:48.913Z,52.84
2022-10-26T16:20:24.780Z,49.73
2022-10-26T16:22:52.748Z,49.00
2022-10-26T16:25:22.575Z,46.26
2022-10-26T16:27:49.661Z,43.67
2022-10-26T16:30:16.760Z,41.67
2022-10-26T16:32:43.726Z,40.09
2022-10-26T16:35:11.791Z,37.62
2022-10-26T16:37:38.426Z,37.83
2022-10-26T16:40:05.996Z,39.35
2022-10-26T16:42:33.148Z,42.26
2022-10-26T16:45:02.628Z,44.18
2022-10-26T16:47:30.747Z,44.97
2022-10-26T16:49:57.399Z,46.78
2022-10-26T16:52:24.065Z,46.79
2022-10-26T16:54:50.689Z,47.14
2022-10-26T16:57:17.310Z,48.67
2022-10-26T16:59:44.006Z,50.29
2022-10-26T17:02:13.718Z,51.82
2022-10-26T17:04:40.477Z,51.17
2022-10-26T17:07:07.036Z,51.35
2022-10-26T17:09:33.623Z,50.60
2022-10-26T17:12:02.060Z,49.01
2022-10-26T17:14:29.037Z,48.68
2022-10-26T17:16:55.627Z,46.50
2022-10-26T17:19:22.199Z,42.11
2022-10-26T17:21:48.818Z,40.59
2022-10-26T17:24:15.487Z,39.65
2022-10-26T17:26:42.444Z,38.13
2022-10-26T17:31:37.247Z,33.71
2022-10-26T17:34:03.886Z,33.17
2022-10-26T17:36:31.678Z,33.10
2022-10-26T17:38:58.561Z,30.88
2022-10-26T17:41:25.360Z,27.71
2022-10-26T17:43:51.934Z,25.56
2022-10-26T17:46:24.331Z,23.06
2022-10-26T17:48:59.151Z,23.34
2022-10-26T17:51:27.597Z,22.19
2022-10-26T17:53:54.985Z,20.73
2022-10-26T17:56:27.700Z,19.86
2022-10-26T17:58:57.625Z,18.11
2022-10-26T18:01:25.078Z,17.08
2022-10-26T18:03:52.243Z,17.01
2022-10-26T18:06:19.100Z,16.04
2022-10-26T18:08:46.119Z,15.63
2022-10-26T18:11:15.099Z,15.41
2022-10-26T18:13:41.773Z,16.02
2022-10-26T18:16:09.532Z,17.02
2022-10-26T18:18:36.301Z,18.49
2022-10-26T18:21:08.110Z,20.16
2022-10-26T18:23:34.907Z,20.67
2022-10-26T18:26:11.135Z,19.79
2022-10-26T18:28:40.191Z,22.39
2022-10-26T18:31:09.013Z,21.89
2022-10-26T18:33:35.854Z,26.59
2022-10-26T18:36:10.446Z,31.60
2022-10-26T18:38:37.739Z,31.38
2022-10-26T18:41:04.469Z,30.59
2022-10-26T18:43:31.010Z,33.51
2022-10-26T18:46:09.807Z,36.67
2022-10-26T18:48:36.838Z,39.36
2022-10-26T18:51:11.873Z,43.16
2022-10-26T18:53:40.203Z,46.08
2022-10-26T18:56:09.795Z,50.55
2022-10-26T18:58:38.459Z,52.27
2022-10-26T19:01:26.410Z,52.75
2022-10-26T19:04:01.427Z,54.51
2022-10-26T19:06:33.437Z,54.62
2022-10-26T19:09:00.517Z,54.18
2022-10-26T19:11:28.917Z,53.73
2022-10-26T19:13:56.159Z,53.50
2022-10-26T19:19:16.344Z,54.47
2022-10-26T19:21:43.621Z,54.96
2022-10-26T19:24:18.991Z,56.13
2022-10-26T19:26:46.256Z,57.43
2022-10-26T19:29:15.520Z,56.80
2022-10-26T19:31:43.578Z,57.58
2022-10-26T19:34:10.960Z,56.60
2022-10-26T19:36:38.122Z,55.81
2022-10-26T19:39:04.799Z,55.45
2022-10-26T19:41:31.413Z,55.29
2022-10-26T19:46:28.115Z,55.57
2022-10-26T19:48:56.806Z,55.77
2022-10-26T19:51:24.695Z,57.50
2022-10-26T19:53:52.071Z,56.84
2022-10-26T19:56:20.494Z,55.76
2022-10-26T19:58:48.146Z,54.64
2022-10-26T20:01:15.559Z,52.76
2022-10-26T20:03:42.647Z,51.03
2022-10-26T20:06:12.891Z,49.88
2022-10-26T20:08:41.487Z,49.25
2022-10-26T20:11:11.675Z,49.83
2022-10-26T20:13:41.418Z,49.49
2022-10-26T20:16:08.832Z,50.70
2022-10-26T20:18:35.444Z,51.34
2022-10-26T20:21:02.086Z,51.28
2022-10-26T20:23:28.740Z,52.75
2022-10-26T20:25:55.838Z,52.02
2022-10-26T20:28:22.806Z,49.68
2022-10-26T20:30:49.896Z,48.92
2022-10-26T20:33:16.749Z,49.87
2022-10-26T20:35:43.434Z,51.41
2022-10-26T20:38:18.701Z,50.38
2022-10-26T20:40:53.340Z,50.00
2022-10-26T20:43:21.408Z,51.09
2022-10-26T20:45:48.703Z,51.94
2022-10-26T20:48:15.742Z,51.40
2022-10-26T20:50:47.229Z,50.27
2022-10-26T20:53:27.693Z,47.97
2022-10-26T20:55:58.244Z,47.99
2022-10-26T20:58:41.295Z,47.79
2022-10-26T21:01:25.671Z,48.16
2022-10-26T21:03:53.525Z,48.38
2022-10-26T21:06:20.311Z,48.73
2022-10-26T21:08:49.655Z,49.04
2022-10-26T21:11:17.469Z,49.20
2022-10-26T21:13:44.753Z,49.67
2022-10-26T21:16:11.481Z,50.35
2022-10-26T21:18:38.074Z,50.16
2022-10-26T21:21:04.879Z,51.89
2022-10-26T21:23:36.278Z,50.49
2022-10-26T21:26:03.325Z,51.17
2022-10-26T21:28:45.936Z,50.32
2022-10-26T21:31:14.318Z,49.64
2022-10-26T21:33:41.397Z,49.16
2022-10-26T21:36:13.965Z,49.08
2022-10-26T21:38:42.296Z,49.44
2022-10-26T21:41:17.491Z,49.79
2022-10-26T21:43:46.267Z,49.39
2022-10-26T21:46:13.508Z,49.08
2022-10-26T21:48:41.119Z,48.68
2022-10-26T21:51:15.549Z,48.58
2022-10-26T21:53:42.182Z,48.61
2022-10-26T21:56:11.969Z,49.24
2022-10-26T21:58:38.992Z,49.77
2022-10-26T22:01:16.322Z,51.49
2022-10-26T22:03:43.736Z,50.71
2022-10-26T22:06:12.398Z,48.96
2022-10-26T22:08:39.052Z,48.19
2022-10-26T22:11:17.373Z,47.88
2022-10-26T22:13:44.683Z,47.62
2022-10-26T22:16:23.402Z,49.57
2022-10-26T22:18:51.858Z,49.03
2022-10-26T22:21:19.328Z,47.82
2022-10-26T22:23:46.603Z,48.14
2022-10-26T22:26:15.814Z,49.11
2022-10-26T22:28:43.936Z,47.71
2022-10-26T22:31:16.652Z,46.98
2022-10-26T22:33:43.819Z,46.35
2022-10-26T22:36:12.471Z,46.04
2022-10-26T22:38:39.198Z,45.75
2022-10-26T22:41:06.215Z,45.60
2022-10-26T22:43:32.886Z,46.91
2022-10-26T22:46:05.673Z,47.49
2022-10-26T22:48:32.983Z,46.75
2022-10-26T22:51:00.020Z,46.65
2022-10-26T22:53:26.578Z,47.63
2022-10-26T22:55:53.144Z,47.43
2022-10-26T22:58:20.851Z,46.59
2022-10-26T23:00:47.499Z,46.58
2022-10-26T23:03:14.093Z,46.79
2022-10-26T23:05:47.731Z,46.52
2022-10-26T23:08:14.444Z,46.24
2022-10-26T23:10:41.117Z,45.94
2022-10-26T23:13:07.754Z,46.44
2022-10-26T23:15:34.418Z,46.31
2022-10-26T23:18:01.048Z,47.41
2022-10-26T23:20:27.732Z,47.25
2022-10-26T23:22:54.430Z,47.78
2022-10-26T23:25:21.026Z,47.88
2022-10-26T23:27:47.662Z,46.93
2022-10-26T23:30:16.697Z,46.42
2022-10-26T23:32:43.307Z,46.06
2022-10-26T23:35:10.166Z,46.14
2022-10-26T23:37:36.778Z,46.88
2022-10-26T23:40:03.687Z,45.97
2022-10-26T23:42:30.280Z,45.76
2022-10-26T23:44:56.901Z,45.12
2022-10-26T23:47:23.514Z,45.21
2022-10-26T23:49:51.355Z,45.00
2022-10-26T23:52:17.927Z,46.85
2022-10-26T23:54:44.567Z,46.18
2022-10-26T23:57:11.153Z,46.09
2022-10-26T23:59:37.760Z,45.43
